If you wish to contribute or participate in the discussions about articles you are invited to join SKYbrary as a registered user

 Actions

Orléans-Saint-Denis-de-l'Hôtel Airport

From SKYbrary Wiki

LFOZ
Airport
ICAO: LFOZ
Summary
Name Orléans-Saint-Denis-de-l'Hôtel Airport
Region Europe
Territory France FR.gif
Location , Centre
Serving Orleans
Elevation 120.701 m
396 ft
396 ft120.701 m
Type small airport
Coordinates 47° 53' 49.01" N, 2° 9' 48.00" E
Runways
Designator Length Width Surface ROPS
5/23 1392 m4,566.929 ft
30 m98.425 ft
ASP /


METAR
Observation LFOZ 222130Z AUTO 04005KT CAVOK 18/09 Q1025
Station Orléans - Saint-Denis-de-l'Hôtel
Date/Time 22 August 2019 21:30:00
Wind direction 40°
Wind speed 05 kts
Lowest cloud amount clouds and visibility OK
Temperature 18°C
Dew point 9°C
Humidity 55%
QNH 1025 hPa
Weather condition n/a